KRZR

Details ICAO KRZR
Name Cleveland Regional Jetport
Region United States
Timezone America/New_York (UTC-4.0)
Plans Departing 6
Arriving 4
Stats Elevation 860 ft / 262 m (AMSL)
Location 35.211502° -84.799785°
Runways 1
Magnetic Variation 5.090° W
Sunrise 2018-05-22 10:31:52 UTC / 2018-05-22 06:31:52 Local
Sunset 2018-05-23 00:42:45 UTC / 2018-05-22 20:42:45 Local
Advertisement - Login to hide

Runways

ID Width Length Bearing (true) Bearing (mag) Surface Threshold Offset Overrun Length
03 100 ft / 30 m 5,512 ft / 1,680 m 29.03° 34.12° Concrete 0 ft / 0 m 0 ft / 0 m
21 100 ft / 30 m 5,512 ft / 1,680 m 209.03° 214.12° Concrete 0 ft / 0 m 0 ft / 0 m

Map

Weather


0- 5 10 15 20 25 30 35+ Temperature / ° C

Clouds and Precipitation
Forecast for 2018-05-22 18:00 UTC. Updated 5 hours ago

Ground ~20,000 ft ~40,000 ft Winds

METAR

KRZR 222135Z AUTO 16004KT 10SM CLR 29/20 A2999 RMK A01

TAF

Not found

Frequencies

Recorded 120.47 MHz AWOS
Approach 125.10 MHz Chattanooga APCH/DEP
Unicom 122.70 MHz CTAF
Departure 125.10 MHz Chattanooga APCH/DEP
Warning: Do not use this data for real-world aviation or navigation. No guarantee of current accuracy is given.